Time;durP1;ratioP1;P1;durP2;ratioP2;P2;SDS_P1;SDS_P2;PMS_P1;PMS_P2;Temp;Humidity;BMP_temperature;BMP_pressure;BME280_temperature;BME280_humidity;BME280_pressure;Samples;Min_cycle;Max_cycle;Signal;HPM_P1;HPM_P2
2022/05/10 00:00:17;;;;;;;10.25;6.40;;;12.90;99.90;;;;;;5047488;28;20172;-72
2022/05/10 00:02:47;;;;;;;13.93;6.55;;;12.80;99.90;;;;;;5030456;28;20042;-74
2022/05/10 00:05:13;;;;;;;9.85;6.82;;;12.80;99.90;;;;;;5031070;28;20372;-73
2022/05/10 00:07:39;;;;;;;10.10;6.07;;;12.80;99.90;;;;;;5016674;28;20167;-73
2022/05/10 00:10:08;;;;;;;8.65;6.53;;;12.80;99.90;;;;;;5034323;28;20574;-74
2022/05/10 00:12:34;;;;;;;13.05;6.13;;;12.80;99.90;;;;;;5042424;28;20069;-74
2022/05/10 00:15:00;;;;;;;13.45;6.40;;;12.70;99.90;;;;;;5023794;28;20045;-74
2022/05/10 00:17:33;;;;;;;10.02;6.03;;;12.70;99.90;;;;;;5031090;28;20053;-75
2022/05/10 00:19:58;;;;;;;12.48;6.47;;;12.70;99.90;;;;;;5045273;28;20083;-73
2022/05/10 00:22:24;;;;;;;8.85;5.70;;;12.60;99.90;;;;;;5031940;28;20156;-74
2022/05/10 00:24:50;;;;;;;8.05;6.07;;;12.70;99.90;;;;;;5022562;28;20045;-74
2022/05/10 00:27:17;;;;;;;12.63;6.35;;;12.60;99.90;;;;;;5032086;28;20052;-74
2022/05/10 00:29:42;;;;;;;7.45;5.60;;;12.50;99.90;;;;;;5031575;28;20130;-74
2022/05/10 00:32:09;;;;;;;11.05;5.68;;;12.40;99.90;;;;;;5041124;28;20119;-74
2022/05/10 00:34:35;;;;;;;11.90;6.15;;;12.40;99.90;;;;;;5035667;28;20045;-74
2022/05/10 00:37:01;;;;;;;10.48;5.45;;;12.40;99.90;;;;;;5029200;28;20483;-74
2022/05/10 00:39:27;;;;;;;9.20;5.65;;;12.40;99.90;;;;;;5038735;28;20041;-73
2022/05/10 00:42:06;;;;;;;11.70;5.85;;;12.40;99.90;;;;;;5030099;28;20045;-74
2022/05/10 00:44:31;;;;;;;8.32;5.75;;;12.20;99.90;;;;;;5030112;28;20038;-74
2022/05/10 00:47:27;;;;;;;8.57;5.45;;;12.30;99.90;;;;;;5040201;28;20044;-74
2022/05/10 00:50:09;;;;;;;9.38;5.32;;;12.30;99.90;;;;;;5031541;28;20041;-74
2022/05/10 00:52:57;;;;;;;10.13;6.00;;;12.20;99.90;;;;;;5045808;28;20037;-74
2022/05/10 00:55:35;;;;;;;12.10;5.43;;;12.20;99.90;;;;;;5039305;28;20111;-74
2022/05/10 00:58:20;;;;;;;11.10;5.35;;;12.20;99.90;;;;;;5032889;28;20128;-74
2022/05/10 01:00:46;;;;;;;8.32;5.35;;;12.20;99.90;;;;;;5042716;28;20053;-74
2022/05/10 01:03:30;;;;;;;7.28;4.97;;;12.20;99.90;;;;;;5049399;28;20128;-74
2022/05/10 01:06:25;;;;;;;12.18;5.25;;;12.20;99.90;;;;;;5060421;28;20115;-74
2022/05/10 01:09:04;;;;;;;10.40;5.25;;;12.20;99.90;;;;;;5049649;28;20402;-75
2022/05/10 01:11:40;;;;;;;11.45;5.30;;;12.20;99.90;;;;;;5049658;28;20562;-74
2022/05/10 01:14:21;;;;;;;7.47;5.50;;;12.30;99.90;;;;;;5029279;28;20056;-74
2022/05/10 01:16:47;;;;;;;8.02;4.97;;;12.30;99.90;;;;;;5032695;28;20060;-74
2022/05/10 01:19:13;;;;;;;8.48;5.40;;;12.30;99.90;;;;;;5049531;28;20045;-73
2022/05/10 01:22:01;;;;;;;9.88;5.47;;;12.30;99.90;;;;;;5049756;28;20024;-73
2022/05/10 01:24:49;;;;;;;12.15;5.35;;;12.40;99.90;;;;;;5032265;28;20094;-73
2022/05/10 01:27:35;;;;;;;7.95;4.93;;;12.30;99.90;;;;;;5048785;28;20483;-73
2022/05/10 01:30:16;;;;;;;9.30;5.18;;;12.30;99.90;;;;;;5047033;28;20057;-74
2022/05/10 01:35:52;;;;;;;;;;;12.30;99.90;;;;;;5066011;28;20049;-74
2022/05/10 01:38:56;;;;;;;6.38;5.13;;;12.30;99.90;;;;;;5045968;28;19924;-73
2022/05/10 01:41:56;;;;;;;8.90;5.78;;;12.30;99.90;;;;;;5038163;28;20187;-74
2022/05/10 01:44:34;;;;;;;8.15;5.18;;;12.30;99.90;;;;;;5004722;28;20590;-74
2022/05/10 01:47:17;;;;;;;8.85;5.85;;;12.30;99.90;;;;;;5033043;28;20114;-73
2022/05/10 01:49:52;;;;;;;9.50;5.22;;;12.30;99.90;;;;;;5046013;28;20701;-74
2022/05/10 01:52:31;;;;;;;8.38;5.45;;;12.20;99.90;;;;;;5033659;28;20126;-74
2022/05/10 01:55:20;;;;;;;8.75;6.03;;;12.20;99.90;;;;;;5049091;28;20610;-74
2022/05/10 01:57:46;;;;;;;14.93;6.20;;;12.20;99.90;;;;;;5048900;28;20060;-74
2022/05/10 02:00:18;;;;;;;9.32;5.10;;;12.20;99.90;;;;;;5040692;28;20045;-73
2022/05/10 02:02:49;;;;;;;8.38;5.60;;;12.20;99.90;;;;;;5047224;28;20857;-74
2022/05/10 02:05:23;;;;;;;8.95;5.80;;;12.20;99.90;;;;;;5048784;28;20565;-74
2022/05/10 02:07:53;;;;;;;10.40;5.60;;;12.20;99.90;;;;;;5048127;28;20048;-74
2022/05/10 02:10:29;;;;;;;9.73;6.10;;;12.20;99.90;;;;;;5048143;28;20045;-74
2022/05/10 02:13:12;;;;;;;6.70;5.38;;;12.20;99.90;;;;;;5045643;28;20133;-75
2022/05/10 02:15:41;;;;;;;;;;;12.20;99.90;;;;;;5046260;28;20055;-74
2022/05/10 02:18:27;;;;;;;8.40;5.18;;;12.20;99.90;;;;;;5049038;28;20353;-74
2022/05/10 02:21:01;;;;;;;10.20;5.97;;;12.20;99.90;;;;;;5048016;28;20052;-74
2022/05/10 02:23:53;;;;;;;11.18;5.90;;;12.20;99.90;;;;;;5047278;28;20055;-74
2022/05/10 02:26:26;;;;;;;7.47;5.13;;;12.20;99.90;;;;;;5028675;28;20140;-74
2022/05/10 02:29:01;;;;;;;8.98;5.15;;;12.20;99.90;;;;;;5064813;28;20041;-75
2022/05/10 02:33:06;;;;;;;6.38;5.55;;;12.20;99.90;;;;;;5033063;28;20473;-72
2022/05/10 02:34:20;;;;;;;9.15;5.85;;;12.20;99.90;;;;;;5048462;28;20044;-74
2022/05/10 02:36:46;;;;;;;9.77;5.88;;;12.20;99.90;;;;;;5032056;28;20394;-74
2022/05/10 02:39:11;;;;;;;9.70;6.00;;;12.20;99.90;;;;;;5047602;28;20051;-74
2022/05/10 02:41:37;;;;;;;9.85;6.00;;;12.20;99.90;;;;;;5048437;28;20048;-73
2022/05/10 02:44:04;;;;;;;9.20;5.97;;;12.20;99.90;;;;;;5048899;28;20509;-74
2022/05/10 02:46:29;;;;;;;9.10;5.80;;;12.20;99.90;;;;;;5049057;28;20072;-75
2022/05/10 02:48:55;;;;;;;9.68;5.70;;;12.30;99.90;;;;;;5031520;28;20107;-74
2022/05/10 02:51:21;;;;;;;8.98;6.63;;;12.30;99.90;;;;;;5051578;28;20478;-74
2022/05/10 02:53:48;;;;;;;10.38;5.80;;;12.30;99.90;;;;;;5052016;28;20824;-73
2022/05/10 02:56:17;;;;;;;7.97;5.68;;;12.30;99.90;;;;;;5051313;28;20057;-74
2022/05/10 02:59:06;;;;;;;8.93;6.00;;;12.30;99.90;;;;;;5051553;28;20047;-75
2022/05/10 03:02:00;;;;;;;9.23;6.22;;;12.30;99.90;;;;;;5043797;28;20077;-75
2022/05/10 03:04:38;;;;;;;10.15;6.85;;;12.30;99.90;;;;;;5051134;28;20036;-75
2022/05/10 03:07:05;;;;;;;9.48;6.35;;;12.30;99.90;;;;;;5052069;28;20052;-74
2022/05/10 03:09:31;;;;;;;10.93;6.60;;;12.30;99.90;;;;;;5035097;28;20056;-75
2022/05/10 03:11:57;;;;;;;10.73;6.70;;;12.30;99.90;;;;;;5051323;28;20053;-73
2022/05/10 03:14:23;;;;;;;12.52;6.30;;;12.30;99.90;;;;;;5048817;28;20063;-73
2022/05/10 03:16:49;;;;;;;9.60;6.85;;;12.30;99.90;;;;;;5034908;28;20415;-73
2022/05/10 03:19:16;;;;;;;12.98;6.60;;;12.20;99.90;;;;;;5035143;28;20037;-73
2022/05/10 03:21:42;;;;;;;10.10;7.03;;;12.30;99.90;;;;;;5051987;28;20048;-75
2022/05/10 03:24:08;;;;;;;8.25;6.88;;;12.30;99.90;;;;;;5050403;28;20040;-75
2022/05/10 03:26:35;;;;;;;8.00;6.95;;;12.30;99.90;;;;;;5052142;28;20044;-75
2022/05/10 03:29:00;;;;;;;10.88;7.40;;;12.30;99.90;;;;;;5050556;28;20078;-75
2022/05/10 03:31:29;;;;;;;11.77;8.30;;;12.30;99.90;;;;;;5049830;28;20044;-75
2022/05/10 03:36:39;;;;;;;10.70;8.38;;;12.30;99.90;;;;;;5045762;28;20194;-74
2022/05/10 03:39:06;;;;;;;12.77;7.38;;;12.30;99.90;;;;;;5051226;28;20530;-75
2022/05/10 03:41:31;;;;;;;10.60;8.25;;;12.40;99.90;;;;;;5068696;28;20035;-74
2022/05/10 03:43:57;;;;;;;12.10;7.90;;;12.30;99.90;;;;;;5034589;28;20135;-74
2022/05/10 03:46:22;;;;;;;15.07;8.32;;;12.30;99.90;;;;;;5050218;28;20032;-74
2022/05/10 03:48:49;;;;;;;12.85;8.80;;;12.40;99.90;;;;;;5050047;28;20464;-74
2022/05/10 03:51:16;;;;;;;14.13;8.32;;;12.40;99.90;;;;;;5051269;28;20029;-74
2022/05/10 03:53:42;;;;;;;13.73;8.68;;;12.40;99.90;;;;;;5050252;28;20502;-75
2022/05/10 03:56:08;;;;;;;13.32;9.40;;;12.40;99.90;;;;;;5050120;28;20048;-74
2022/05/10 03:58:34;;;;;;;13.27;9.10;;;12.40;99.90;;;;;;5049890;28;20048;-73
2022/05/10 04:00:59;;;;;;;13.82;8.48;;;12.40;99.90;;;;;;5046116;28;20042;-74
2022/05/10 04:03:25;;;;;;;84.03;14.25;;;12.40;99.90;;;;;;5048023;28;20044;-74
2022/05/10 04:05:50;;;;;;;41.88;10.52;;;12.40;99.90;;;;;;5037562;28;20166;-76
2022/05/10 04:08:16;;;;;;;35.25;10.75;;;12.40;99.90;;;;;;5065347;28;20106;-74
2022/05/10 04:10:42;;;;;;;18.13;9.27;;;12.40;99.90;;;;;;5050356;28;20470;-73
2022/05/10 04:13:10;;;;;;;15.90;10.15;;;12.40;99.90;;;;;;5050107;28;20055;-75
2022/05/10 04:15:36;;;;;;;12.50;9.10;;;12.40;99.90;;;;;;5050938;28;20049;-74
2022/05/10 04:18:03;;;;;;;13.77;9.07;;;12.40;99.90;;;;;;5050240;28;20037;-74
2022/05/10 04:20:28;;;;;;;14.80;9.30;;;12.40;99.90;;;;;;5050330;28;20041;-75
2022/05/10 04:22:54;;;;;;;12.32;9.30;;;12.40;99.90;;;;;;5049895;28;20040;-73
2022/05/10 04:25:23;;;;;;;13.95;9.13;;;12.50;99.90;;;;;;5051771;28;20045;-74
2022/05/10 04:27:51;;;;;;;11.35;8.77;;;12.50;99.90;;;;;;5050410;28;20056;-74
2022/05/10 04:30:17;;;;;;;14.63;10.05;;;12.50;99.90;;;;;;5050430;28;20045;-74
2022/05/10 04:32:43;;;;;;;18.55;9.65;;;12.50;99.90;;;;;;5050531;28;20068;-74
2022/05/10 04:35:10;;;;;;;12.98;9.50;;;12.60;99.90;;;;;;5032557;28;20040;-74
2022/05/10 04:37:36;;;;;;;13.07;10.23;;;12.60;99.90;;;;;;5050904;28;20506;-74
2022/05/10 04:42:46;;;;;;;15.00;9.85;;;12.60;99.90;;;;;;5049619;28;20053;-75
2022/05/10 04:45:15;;;;;;;14.55;9.45;;;12.70;99.90;;;;;;5049422;28;20029;-74
2022/05/10 04:47:41;;;;;;;11.43;9.73;;;12.70;99.90;;;;;;5050779;28;20032;-74
2022/05/10 04:50:08;;;;;;;14.43;10.02;;;12.80;99.90;;;;;;5049028;28;20079;-73
2022/05/10 04:52:34;;;;;;;14.27;10.57;;;12.80;99.90;;;;;;5048065;28;20056;-74
2022/05/10 04:54:59;;;;;;;13.02;9.68;;;12.90;99.90;;;;;;5067228;28;20032;-73
2022/05/10 04:57:25;;;;;;;15.75;10.40;;;13.00;99.90;;;;;;5050531;28;20048;-75
2022/05/10 04:59:50;;;;;;;12.70;11.27;;;13.00;99.90;;;;;;5033929;28;20088;-75
2022/05/10 05:02:16;;;;;;;15.88;10.57;;;13.00;99.90;;;;;;5039222;28;20110;-74
2022/05/10 05:04:41;;;;;;;13.25;10.85;;;13.10;99.90;;;;;;5038284;28;20488;-73
2022/05/10 05:07:09;;;;;;;14.68;10.80;;;13.10;99.90;;;;;;5035140;28;20543;-73
2022/05/10 05:09:34;;;;;;;16.08;10.55;;;13.20;99.90;;;;;;5028794;28;20047;-74
2022/05/10 05:12:00;;;;;;;13.77;10.45;;;13.30;99.90;;;;;;5030585;28;20041;-74
2022/05/10 05:14:26;;;;;;;13.32;10.88;;;13.30;99.90;;;;;;5041560;28;20055;-74
2022/05/10 05:16:54;;;;;;;13.00;10.82;;;13.40;99.90;;;;;;5047936;28;20139;-75
2022/05/10 05:19:20;;;;;;;14.45;10.77;;;13.50;99.90;;;;;;5032200;28;20095;-75
2022/05/10 05:21:45;;;;;;;15.25;11.52;;;13.50;99.90;;;;;;5041194;28;20143;-75
2022/05/10 05:24:11;;;;;;;12.65;10.90;;;13.60;99.90;;;;;;5036581;28;20021;-74
2022/05/10 05:26:37;;;;;;;14.32;11.07;;;13.60;99.90;;;;;;5046363;28;20133;-73
2022/05/10 05:29:03;;;;;;;15.88;11.50;;;13.70;99.90;;;;;;5041066;28;20080;-75
2022/05/10 05:31:29;;;;;;;14.52;11.10;;;13.80;99.90;;;;;;5045403;28;20060;-73
2022/05/10 05:33:55;;;;;;;15.82;11.80;;;13.80;99.90;;;;;;5030095;28;20561;-74
2022/05/10 05:36:21;;;;;;;17.90;11.70;;;13.90;99.90;;;;;;5048979;28;20076;-74
2022/05/10 05:38:49;;;;;;;15.10;11.25;;;13.90;99.90;;;;;;5047261;28;20072;-73
2022/05/10 05:41:15;;;;;;;15.82;11.23;;;14.00;99.90;;;;;;5035722;28;20042;-74
2022/05/10 05:43:41;;;;;;;16.80;11.80;;;14.10;99.90;;;;;;5023900;28;20033;-75
2022/05/10 05:46:07;;;;;;;12.55;10.85;;;14.10;99.90;;;;;;5035980;28;20045;-75
2022/05/10 05:48:33;;;;;;;13.65;11.15;;;14.20;99.90;;;;;;5029883;28;20049;-75
2022/05/10 05:50:59;;;;;;;19.95;11.68;;;14.30;99.90;;;;;;5020432;28;20111;-74
2022/05/10 05:53:26;;;;;;;14.82;12.00;;;14.30;99.90;;;;;;5022127;28;20052;-75
2022/05/10 05:55:53;;;;;;;13.95;11.15;;;14.40;99.90;;;;;;5030390;28;20056;-75
2022/05/10 05:58:19;;;;;;;14.02;11.07;;;14.50;99.90;;;;;;5032741;28;20060;-75
2022/05/10 06:00:45;;;;;;;14.20;10.93;;;14.60;99.90;;;;;;5028980;28;20060;-74
2022/05/10 06:03:11;;;;;;;13.48;11.27;;;14.70;99.90;;;;;;5020909;28;20096;-73
2022/05/10 06:05:37;;;;;;;15.63;11.30;;;14.80;99.90;;;;;;5028630;28;20042;-75
2022/05/10 06:08:03;;;;;;;14.82;11.85;;;14.90;99.90;;;;;;5025393;28;20041;-75
2022/05/10 06:10:29;;;;;;;14.07;11.90;;;15.00;99.90;;;;;;5029452;28;20049;-75
2022/05/10 06:12:59;;;;;;;19.92;11.95;;;15.10;99.90;;;;;;5013683;28;20037;-74
2022/05/10 06:15:24;;;;;;;18.08;11.90;;;15.20;99.90;;;;;;5029691;28;20045;-74
2022/05/10 06:17:50;;;;;;;14.25;11.77;;;15.40;99.90;;;;;;5023494;28;20041;-74
2022/05/10 06:20:18;;;;;;;15.65;11.80;;;15.50;99.90;;;;;;5022651;28;20122;-76
2022/05/10 06:22:45;;;;;;;13.30;11.38;;;15.70;99.90;;;;;;5029007;28;20072;-75
2022/05/10 06:25:13;;;;;;;13.27;10.40;;;16.00;99.90;;;;;;5020943;28;20054;-74
2022/05/10 06:27:39;;;;;;;13.10;10.88;;;16.20;99.90;;;;;;5009439;28;20120;-74
2022/05/10 06:30:05;;;;;;;10.85;8.82;;;16.40;99.90;;;;;;5029320;28;20124;-74
2022/05/10 06:32:31;;;;;;;12.43;10.15;;;16.60;99.90;;;;;;5028720;28;20048;-74
2022/05/10 06:34:58;;;;;;;12.52;9.55;;;17.00;99.90;;;;;;5025880;28;20049;-75
2022/05/10 06:40:12;;;;;;;10.50;8.15;;;18.10;99.90;;;;;;5029938;28;20045;-74
2022/05/10 06:42:38;;;;;;;11.98;8.32;;;18.90;99.90;;;;;;5029645;28;20502;-74
2022/05/10 06:45:09;;;;;;;9.93;8.63;;;19.40;99.30;;;;;;5030417;28;20048;-73
2022/05/10 06:47:37;;;;;;;13.88;8.20;;;19.70;98.80;;;;;;5022358;28;20064;-74
2022/05/10 06:50:04;;;;;;;11.50;8.07;;;19.70;98.40;;;;;;5028187;28;20116;-73
2022/05/10 06:52:30;;;;;;;8.35;7.55;;;19.80;97.90;;;;;;5008062;28;20068;-74
2022/05/10 06:54:56;;;;;;;11.05;7.40;;;19.70;97.60;;;;;;5028057;28;20410;-73
2022/05/10 06:57:22;;;;;;;8.10;7.22;;;19.60;96.60;;;;;;5027821;28;20541;-75
2022/05/10 06:59:47;;;;;;;10.68;7.28;;;19.60;97.00;;;;;;5027640;28;20061;-74
2022/05/10 07:02:13;;;;;;;9.63;7.43;;;19.80;96.70;;;;;;5024869;28;20435;-74
2022/05/10 07:04:39;;;;;;;10.45;7.28;;;20.10;95.90;;;;;;5024132;28;20403;-74
2022/05/10 07:07:05;;;;;;;15.43;6.80;;;20.30;95.60;;;;;;5042158;22;20081;-74
2022/05/10 07:09:30;;;;;;;8.88;6.85;;;20.60;96.00;;;;;;5038526;28;20116;-75
2022/05/10 07:11:56;;;;;;;12.13;7.28;;;21.10;94.60;;;;;;5028512;28;20036;-75
2022/05/10 07:14:21;;;;;;;8.48;6.32;;;21.60;94.90;;;;;;5031337;28;20041;-75
2022/05/10 07:16:47;;;;;;;9.07;5.80;;;22.40;94.40;;;;;;5037183;28;20037;-75
2022/05/10 07:19:12;;;;;;;10.18;6.45;;;23.00;91.50;;;;;;5025683;28;20040;-75
2022/05/10 07:21:38;;;;;;;8.27;5.07;;;23.60;90.80;;;;;;5012074;28;20049;-76
2022/05/10 07:24:04;;;;;;;8.30;5.65;;;24.10;85.20;;;;;;5012205;28;20390;-76
2022/05/10 07:26:29;;;;;;;9.18;5.55;;;24.40;81.20;;;;;;5033962;28;20127;-76
2022/05/10 07:28:55;;;;;;;11.23;5.97;;;24.90;78.70;;;;;;5030706;28;20057;-76
2022/05/10 07:31:20;;;;;;;8.75;4.97;;;25.30;76.60;;;;;;5041941;28;20440;-77
2022/05/10 07:33:46;;;;;;;7.38;4.75;;;25.50;75.30;;;;;;5030332;28;20553;-77
2022/05/10 07:36:23;;;;;;;11.95;5.32;;;25.70;73.60;;;;;;5026650;28;20489;-76
2022/05/10 07:38:49;;;;;;;8.02;4.82;;;25.60;70.70;;;;;;5034038;28;20052;-76
2022/05/10 07:41:18;;;;;;;8.32;5.47;;;25.40;70.40;;;;;;5033810;28;20045;-76
2022/05/10 07:43:45;;;;;;;8.43;4.85;;;25.20;67.20;;;;;;5041792;28;20082;-76
2022/05/10 07:46:10;;;;;;;8.40;4.03;;;25.10;68.60;;;;;;5032015;28;20050;-76
2022/05/10 07:48:36;;;;;;;9.85;4.43;;;24.90;70.00;;;;;;5031323;28;20158;-76
2022/05/10 07:51:02;;;;;;;9.30;4.75;;;24.70;69.50;;;;;;5036651;28;20045;-76
2022/05/10 07:53:31;;;;;;;7.50;4.10;;;24.80;68.60;;;;;;5028039;28;20056;-76
2022/05/10 07:55:58;;;;;;;6.10;4.30;;;24.90;68.90;;;;;;5028742;28;20052;-76
2022/05/10 07:58:23;;;;;;;6.57;4.20;;;25.00;68.90;;;;;;5034854;28;20036;-76
2022/05/10 08:00:50;;;;;;;11.02;4.15;;;25.00;69.00;;;;;;5032967;28;20493;-76
2022/05/10 08:03:18;;;;;;;9.88;4.40;;;25.00;70.00;;;;;;5031995;28;20044;-76
2022/05/10 08:05:44;;;;;;;8.77;4.22;;;24.90;69.00;;;;;;5033135;28;20041;-76
2022/05/10 08:08:11;;;;;;;8.15;4.32;;;24.90;70.00;;;;;;5038866;28;20053;-76
2022/05/10 08:10:38;;;;;;;9.48;4.88;;;24.80;70.60;;;;;;5042871;28;20124;-76
2022/05/10 08:13:04;;;;;;;12.40;4.60;;;24.70;69.90;;;;;;5027909;28;20085;-76
2022/05/10 08:15:30;;;;;;;5.90;4.45;;;24.70;69.70;;;;;;5032030;28;20068;-76
2022/05/10 08:17:56;;;;;;;9.75;4.40;;;24.60;69.00;;;;;;5037749;28;20052;-76
2022/05/10 08:20:21;;;;;;;7.20;4.20;;;24.70;69.20;;;;;;5052392;28;20040;-76
2022/05/10 08:22:47;;;;;;;14.15;4.65;;;24.80;68.90;;;;;;5030394;28;20033;-76
2022/05/10 08:25:13;;;;;;;8.55;4.55;;;24.90;66.80;;;;;;5044109;28;20073;-76
2022/05/10 08:27:39;;;;;;;6.15;4.45;;;24.90;67.50;;;;;;5028238;28;20043;-76
2022/05/10 08:30:06;;;;;;;7.68;4.35;;;24.80;65.70;;;;;;5025982;28;20041;-76
2022/05/10 08:32:31;;;;;;;7.75;4.22;;;24.70;66.60;;;;;;5032133;28;20052;-76
2022/05/10 08:34:57;;;;;;;11.50;4.38;;;24.50;68.20;;;;;;5039976;28;20041;-76
2022/05/10 08:37:22;;;;;;;7.32;4.40;;;24.50;67.10;;;;;;5026067;28;20691;-76
2022/05/10 08:39:48;;;;;;;8.43;4.50;;;24.30;66.60;;;;;;5027278;28;20607;-76
2022/05/10 08:42:14;;;;;;;6.75;4.38;;;24.20;68.90;;;;;;5030865;28;20075;-76
2022/05/10 08:44:40;;;;;;;10.05;4.40;;;24.20;68.70;;;;;;5032621;28;20082;-76
2022/05/10 08:47:07;;;;;;;8.25;4.32;;;24.20;68.80;;;;;;5032802;28;20045;-76
2022/05/10 08:49:39;;;;;;;6.60;4.45;;;24.10;69.70;;;;;;5023447;28;20094;-76
2022/05/10 08:52:08;;;;;;;8.15;4.70;;;24.10;69.10;;;;;;5015697;28;20073;-76
2022/05/10 08:54:37;;;;;;;7.68;3.92;;;24.10;69.80;;;;;;5034358;28;20068;-76
2022/05/10 08:57:24;;;;;;;5.90;4.22;;;24.10;68.60;;;;;;5026497;28;20071;-76
2022/05/10 09:00:02;;;;;;;6.47;4.53;;;24.00;70.10;;;;;;5026102;28;20033;-76
2022/05/10 09:02:45;;;;;;;10.52;4.47;;;24.00;69.10;;;;;;5027357;28;20037;-76
2022/05/10 09:05:35;;;;;;;9.35;5.10;;;24.00;69.00;;;;;;5042721;28;20041;-76
2022/05/10 09:08:16;;;;;;;9.68;4.95;;;24.00;68.40;;;;;;5026305;28;20050;-76
2022/05/10 09:10:51;;;;;;;14.30;4.93;;;23.80;68.50;;;;;;5027952;28;20056;-76
2022/05/10 09:13:18;;;;;;;6.22;4.20;;;23.80;70.10;;;;;;5027615;28;20033;-76
2022/05/10 09:16:05;;;;;;;10.18;4.75;;;23.70;70.50;;;;;;5013352;28;20052;-75
2022/05/10 09:18:46;;;;;;;9.07;4.97;;;23.70;70.70;;;;;;5031629;28;20033;-76
2022/05/10 09:21:23;;;;;;;6.50;4.78;;;23.60;69.20;;;;;;5026237;28;20041;-76
2022/05/10 09:24:07;;;;;;;7.03;4.75;;;23.50;69.40;;;;;;5016221;28;20132;-75
2022/05/10 09:26:47;;;;;;;8.15;4.60;;;23.40;70.10;;;;;;5031038;28;20044;-75
2022/05/10 09:29:35;;;;;;;10.20;5.38;;;23.30;71.30;;;;;;5029402;28;20087;-75
2022/05/10 09:35:17;;;;;;;6.90;5.43;;;23.20;70.60;;;;;;5019317;28;20049;-75
2022/05/10 09:37:51;;;;;;;8.15;4.97;;;23.20;71.70;;;;;;5030443;28;20037;-75
2022/05/10 09:40:30;;;;;;;8.77;5.20;;;23.20;72.00;;;;;;5032052;28;20086;-76
2022/05/10 09:43:10;;;;;;;9.40;5.72;;;23.30;72.50;;;;;;5020066;28;20047;-76
2022/05/10 09:45:37;;;;;;;6.45;5.18;;;23.30;71.30;;;;;;5032701;28;20383;-75
2022/05/10 09:48:09;;;;;;;9.30;5.57;;;23.40;71.80;;;;;;5012661;28;20486;-76
2022/05/10 09:50:36;;;;;;;;;;;23.50;72.20;;;;;;5037425;28;20120;-76
2022/05/10 09:53:17;;;;;;;10.38;5.47;;;23.60;72.50;;;;;;5029116;28;20011;-76
2022/05/10 09:55:54;;;;;;;;;;;23.70;72.60;;;;;;5039814;28;20083;-76
2022/05/10 09:58:48;;;;;;;8.10;5.90;;;23.80;71.10;;;;;;5010968;28;19916;-76
2022/05/10 10:01:16;;;;;;;8.57;6.45;;;24.00;72.00;;;;;;5011028;28;20045;-76
2022/05/10 10:03:45;;;;;;;9.25;6.05;;;24.10;69.80;;;;;;5031104;28;20067;-75
2022/05/10 10:06:18;;;;;;;8.95;5.97;;;24.00;70.30;;;;;;5030726;28;20548;-75
2022/05/10 10:08:50;;;;;;;7.95;5.57;;;24.00;70.80;;;;;;5018721;28;20107;-76
2022/05/10 10:11:21;;;;;;;8.60;6.40;;;24.10;72.50;;;;;;5032360;28;20049;-76
2022/05/10 10:13:51;;;;;;;;;;;24.20;69.90;;;;;;5040920;28;20117;-76
2022/05/10 10:16:25;;;;;;;5.57;4.93;;;24.10;70.90;;;;;;5028442;28;20457;-75
2022/05/10 10:19:08;;;;;;;7.72;5.70;;;24.10;71.50;;;;;;5031218;28;20036;-76
2022/05/10 10:21:49;;;;;;;10.45;5.30;;;24.10;70.80;;;;;;5027958;28;20041;-76
2022/05/10 10:24:51;;;;;;;4.80;4.40;;;24.00;69.90;;;;;;5029640;28;20511;-76
2022/05/10 10:27:42;;;;;;;8.68;4.50;;;23.90;70.00;;;;;;5008037;28;20308;-76
2022/05/10 10:30:28;;;;;;;6.93;4.57;;;24.00;69.90;;;;;;5024398;28;20502;-76
2022/05/10 10:33:46;;;;;;;5.30;4.80;;;24.10;71.60;;;;;;5024277;28;20488;-76
2022/05/10 10:36:27;;;;;;;8.73;5.13;;;24.20;70.30;;;;;;5024154;28;20425;-76
2022/05/10 10:39:13;;;;;;;9.70;5.10;;;24.30;69.20;;;;;;5028941;28;20037;-76
2022/05/10 10:42:11;;;;;;;6.95;5.32;;;24.40;70.00;;;;;;5020192;28;20041;-76
2022/05/10 10:44:42;;;;;;;8.27;4.72;;;24.70;68.10;;;;;;5026328;28;20068;-75
2022/05/10 10:47:27;;;;;;;7.30;5.50;;;24.90;69.00;;;;;;5036476;28;20055;-76
2022/05/10 10:50:21;;;;;;;8.85;5.60;;;25.00;68.70;;;;;;5031868;28;20498;-75
2022/05/10 10:52:46;;;;;;;8.52;4.80;;;25.10;67.30;;;;;;5016933;28;20049;-75
2022/05/10 10:55:13;;;;;;;6.88;4.85;;;25.20;68.00;;;;;;5032851;28;20513;-75
2022/05/10 10:57:47;;;;;;;11.57;5.05;;;25.20;68.30;;;;;;5035034;28;20045;-75
2022/05/10 11:00:19;;;;;;;8.55;5.80;;;25.30;65.60;;;;;;5022951;28;20692;-72
2022/05/10 11:03:15;;;;;;;7.38;6.32;;;25.10;66.20;;;;;;5046574;28;20040;-71
2022/05/10 11:06:17;;;;;;;6.32;4.93;;;25.00;65.80;;;;;;5043271;28;20071;-72
2022/05/10 11:09:05;;;;;;;6.85;5.20;;;24.90;67.00;;;;;;5013377;28;20610;-72
2022/05/10 11:11:53;;;;;;;8.80;5.68;;;24.80;68.90;;;;;;5021009;28;20037;-72
2022/05/10 11:14:48;;;;;;;12.00;6.45;;;24.80;67.50;;;;;;5033254;28;20045;-72
2022/05/10 11:17:24;;;;;;;9.20;6.22;;;24.60;68.40;;;;;;5034739;28;20041;-72
2022/05/10 11:20:15;;;;;;;8.82;6.20;;;24.60;69.10;;;;;;5033537;28;20336;-72
2022/05/10 11:22:44;;;;;;;8.95;6.40;;;24.50;68.70;;;;;;5031865;28;20391;-72
2022/05/10 11:25:35;;;;;;;7.78;6.80;;;24.30;68.70;;;;;;5034895;28;20073;-72
2022/05/10 11:28:44;;;;;;;8.95;7.03;;;24.10;69.70;;;;;;5015274;28;20045;-71
2022/05/10 11:31:31;;;;;;;8.73;6.70;;;23.90;71.00;;;;;;5013745;28;20146;-72
2022/05/10 11:34:18;;;;;;;8.88;5.90;;;23.80;71.40;;;;;;5034678;28;20052;-72
2022/05/10 11:36:49;;;;;;;11.05;5.90;;;23.80;71.30;;;;;;5034118;28;20045;-71
2022/05/10 11:39:54;;;;;;;7.22;5.90;;;24.00;70.90;;;;;;5033086;28;20036;-71
2022/05/10 11:42:32;;;;;;;8.68;6.20;;;24.10;69.30;;;;;;5034265;28;20049;-71
2022/05/10 11:45:19;;;;;;;7.50;5.10;;;24.20;69.50;;;;;;5034609;28;20037;-71
2022/05/10 11:48:22;;;;;;;6.15;5.45;;;24.20;70.10;;;;;;5033359;28;20102;-71
2022/05/10 11:51:42;;;;;;;10.77;6.35;;;24.30;69.60;;;;;;5016142;28;20067;-71
2022/05/10 11:54:39;;;;;;;9.38;5.07;;;24.30;68.70;;;;;;5041258;28;20060;-71
2022/05/10 11:57:10;;;;;;;7.85;6.15;;;24.50;68.40;;;;;;5033648;28;20045;-73
2022/05/10 11:59:37;;;;;;;13.32;6.20;;;24.40;69.30;;;;;;5010347;28;20063;-72
2022/05/10 12:02:05;;;;;;;6.90;5.82;;;24.50;69.30;;;;;;5029120;28;20425;-72
2022/05/10 12:04:39;;;;;;;11.30;5.60;;;24.70;68.30;;;;;;5032636;28;20069;-72
2022/05/10 12:07:24;;;;;;;8.90;5.25;;;24.90;69.10;;;;;;5016887;28;20036;-73
2022/05/10 12:09:52;;;;;;;7.13;4.47;;;25.20;69.00;;;;;;5051197;28;20051;-72
2022/05/10 12:12:47;;;;;;;9.40;4.70;;;25.40;68.80;;;;;;5033868;28;20481;-72
2022/05/10 12:21:28;;;;;;;12.23;5.00;;;25.70;65.40;;;;;;5031005;28;20494;-72
2022/05/10 12:24:02;;;;;;;8.20;4.60;;;25.60;64.90;;;;;;5029637;28;20045;-72
2022/05/10 12:26:35;;;;;;;7.45;4.10;;;25.60;65.80;;;;;;5032800;28;20120;-72
2022/05/10 12:29:02;;;;;;;12.52;4.75;;;25.60;65.90;;;;;;5013930;28;20774;-72
2022/05/10 12:31:31;;;;;;;10.27;5.05;;;25.50;65.10;;;;;;5033203;28;20564;-72
2022/05/10 12:34:08;;;;;;;14.38;4.82;;;25.50;65.00;;;;;;5029967;28;20047;-72
2022/05/10 12:36:38;;;;;;;5.35;3.60;;;25.50;65.30;;;;;;5032186;28;20650;-72
2022/05/10 12:39:25;;;;;;;9.30;4.63;;;25.60;66.30;;;;;;5024033;28;20064;-72
2022/05/10 12:42:07;;;;;;;9.63;4.80;;;25.70;65.20;;;;;;5038571;28;20038;-72
2022/05/10 12:45:11;;;;;;;9.07;4.53;;;25.80;65.30;;;;;;5033436;28;20040;-72
2022/05/10 12:47:57;;;;;;;9.40;4.07;;;25.80;64.80;;;;;;5036689;28;20107;-72
2022/05/10 12:50:51;;;;;;;9.07;3.97;;;25.80;64.30;;;;;;5015595;28;20047;-72
2022/05/10 12:53:28;;;;;;;7.93;4.53;;;25.60;63.90;;;;;;5060315;28;20045;-72
2022/05/10 12:56:27;;;;;;;5.85;4.20;;;25.60;65.20;;;;;;5030866;28;20052;-72
2022/05/10 12:58:56;;;;;;;6.95;4.55;;;25.70;66.00;;;;;;5014416;28;20060;-73
2022/05/10 13:01:31;;;;;;;9.65;5.03;;;25.70;65.90;;;;;;5023180;28;20041;-73
2022/05/10 13:04:22;;;;;;;10.35;4.90;;;25.50;65.90;;;;;;5044548;28;21190;-73
2022/05/10 13:07:12;;;;;;;7.13;4.25;;;25.40;65.10;;;;;;5030205;28;20053;-73
2022/05/10 13:10:01;;;;;;;8.07;4.60;;;25.30;64.60;;;;;;5030404;28;20132;-73
2022/05/10 13:12:39;;;;;;;10.80;4.68;;;25.00;64.80;;;;;;5029888;28;20051;-73
2022/05/10 13:15:15;;;;;;;7.90;3.78;;;24.90;65.20;;;;;;5046194;28;20191;-73
2022/05/10 13:17:47;;;;;;;12.20;4.18;;;24.90;66.40;;;;;;5025310;28;20037;-73
2022/05/10 13:20:15;;;;;;;8.65;4.18;;;24.80;65.30;;;;;;5048706;28;20618;-72
2022/05/10 13:22:53;;;;;;;6.47;3.97;;;24.70;65.90;;;;;;5013422;28;20392;-72
2022/05/10 13:25:34;;;;;;;8.00;3.92;;;24.70;66.40;;;;;;5026460;28;20044;-73
2022/05/10 13:28:13;;;;;;;6.90;3.80;;;24.70;66.60;;;;;;5031728;28;20053;-73
2022/05/10 13:30:45;;;;;;;7.20;3.53;;;24.60;66.40;;;;;;5026974;28;20069;-73
2022/05/10 13:33:22;;;;;;;8.93;4.00;;;24.70;67.00;;;;;;5040401;28;20112;-84